Time;durP1;ratioP1;P1;durP2;ratioP2;P2;SDS_P1;SDS_P2;PMS_P1;PMS_P2;Temp;Humidity;BMP_temperature;BMP_pressure;BME280_temperature;BME280_humidity;BME280_pressure;Samples;Min_cycle;Max_cycle;Signal;HPM_P1;HPM_P2
2021/12/25 00:01:11;;;;;;;;;17.50;15.75;;;;;11.79;74.50;100064.38;5067346;28;46014;-84
2021/12/25 00:03:37;;;;;;;;;17.00;14.00;;;;;11.74;74.59;100060.09;5044837;28;46448;-84
2021/12/25 00:06:03;;;;;;;;;20.00;19.25;;;;;11.74;74.70;100063.59;5061392;28;45879;-83
2021/12/25 00:08:31;;;;;;;;;17.75;17.00;;;;;11.72;74.83;100057.47;5064545;28;45502;-83
2021/12/25 00:11:01;;;;;;;;;22.50;18.25;;;;;11.66;74.96;100047.03;5051120;28;48192;-83
2021/12/25 00:13:30;;;;;;;;;19.25;17.25;;;;;11.72;74.73;100054.81;5067946;28;45614;-85
2021/12/25 00:15:56;;;;;;;;;21.75;18.50;;;;;11.64;74.75;100035.66;5044409;28;45620;-82
2021/12/25 00:18:28;;;;;;;;;18.00;16.00;;;;;11.68;74.64;100045.22;5049780;28;45453;-84
2021/12/25 00:20:53;;;;;;;;;12.25;12.25;;;;;11.65;74.91;100030.34;5059034;28;45711;-83
2021/12/25 00:23:19;;;;;;;;;17.25;15.00;;;;;11.64;74.93;100028.59;5046728;28;45476;-83
2021/12/25 00:25:55;;;;;;;;;17.75;14.50;;;;;11.67;74.80;100028.53;5045901;28;45508;-83
2021/12/25 00:36:16;;;;;;;;;22.25;17.75;;;;;11.71;74.58;100013.53;5062210;28;45529;-82
2021/12/25 00:38:43;;;;;;;;;14.50;12.75;;;;;11.67;74.60;100009.22;5044745;28;45731;-82
2021/12/25 00:41:10;;;;;;;;;22.00;19.50;;;;;11.67;74.60;100009.22;5070136;28;46211;-82
2021/12/25 00:43:36;;;;;;;;;21.75;21.00;;;;;11.69;74.74;100020.59;5060481;28;45644;-82
2021/12/25 00:46:02;;;;;;;;;28.00;25.75;;;;;11.60;74.59;100007.59;5064120;28;45517;-83
2021/12/25 00:48:28;;;;;;;;;21.50;21.00;;;;;11.65;75.01;100022.44;5051090;28;45679;-82
2021/12/25 00:50:54;;;;;;;;;25.00;22.75;;;;;11.60;74.80;100002.31;5039473;28;46886;-82
2021/12/25 00:53:20;;;;;;;;;27.25;26.25;;;;;11.64;74.73;100017.19;5071138;28;45425;-83
2021/12/25 00:55:45;;;;;;;;;24.25;21.25;;;;;11.64;74.82;100018.06;5059145;28;45490;-82
2021/12/25 00:58:11;;;;;;;;;30.75;24.00;;;;;11.63;74.77;100010.19;5061500;28;45420;-82
2021/12/25 01:00:37;;;;;;;;;26.00;20.25;;;;;11.61;74.69;100007.56;5066709;28;46967;-83
2021/12/25 01:03:03;;;;;;;;;22.00;20.00;;;;;11.61;74.68;100015.47;5075865;28;45542;-81
2021/12/25 01:05:28;;;;;;;;;21.25;21.00;;;;;11.61;74.38;100020.75;5064670;28;45699;-79
2021/12/25 01:07:54;;;;;;;;;22.25;21.75;;;;;11.61;74.58;100019.91;5058036;28;45997;-81
2021/12/25 01:10:21;;;;;;;;;24.50;21.50;;;;;11.59;74.71;100013.78;5065636;28;45667;-80
2021/12/25 01:13:03;;;;;;;;;22.25;20.50;;;;;11.58;74.58;100007.63;5064490;28;45552;-80
2021/12/25 01:15:41;;;;;;;;;26.00;23.75;;;;;11.57;74.41;100018.19;5047463;28;45707;-79
2021/12/25 01:49:44;;;;;;;;;22.25;20.00;;;;;11.37;74.60;100040.53;5069552;28;45358;-81
2021/12/25 01:52:09;;;;;;;;;20.00;19.00;;;;;11.39;74.63;100041.38;5064575;28;47179;-80
2021/12/25 01:54:35;;;;;;;;;19.00;18.25;;;;;11.44;74.55;100047.44;5054821;28;46310;-80
2021/12/25 01:57:01;;;;;;;;;22.25;15.75;;;;;11.38;74.49;100041.41;5051582;28;45294;-80
2021/12/25 01:59:27;;;;;;;;;22.50;19.00;;;;;11.42;74.51;100041.34;5082824;28;45413;-80
2021/12/25 02:01:52;;;;;;;;;16.50;16.50;;;;;11.42;74.36;100043.09;5069794;28;45390;-80
2021/12/25 02:04:18;;;;;;;;;14.00;13.25;;;;;11.44;74.31;100051.81;5064680;28;45334;-80
2021/12/25 02:06:44;;;;;;;;;12.50;11.25;;;;;11.35;74.31;100041.47;5064767;28;45764;-80
2021/12/25 02:09:09;;;;;;;;;12.25;12.00;;;;;11.34;74.52;100045.00;5071745;28;45236;-80
2021/12/25 02:11:35;;;;;;;;;13.50;12.25;;;;;11.37;74.17;100043.19;5057529;28;47940;-80
2021/12/25 02:14:02;;;;;;;;;14.50;11.25;;;;;11.32;74.50;100038.88;5074034;28;45251;-80
2021/12/25 02:16:40;;;;;;;;;14.25;12.00;;;;;11.31;74.43;100048.56;5069286;28;45221;-80
2021/12/25 02:19:20;;;;;;;;;12.00;11.50;;;;;11.34;74.55;100053.78;5050883;28;45607;-80
2021/12/25 02:21:45;;;;;;;;;15.50;11.00;;;;;11.31;74.41;100050.34;5062375;28;45555;-80
2021/12/25 02:24:12;;;;;;;;;12.25;10.25;;;;;11.31;74.60;100043.31;5074796;28;45291;-80
2021/12/25 02:26:40;;;;;;;;;11.00;9.25;;;;;11.36;74.47;100048.47;5052948;28;45410;-81
2021/12/25 02:29:05;;;;;;;;;13.75;12.25;;;;;11.35;74.34;100046.75;5064150;28;45458;-80
2021/12/25 02:31:32;;;;;;;;;9.75;9.75;;;;;11.34;74.30;100052.91;5082426;28;45295;-81
2021/12/25 02:33:57;;;;;;;;;10.00;9.00;;;;;11.33;74.54;100043.25;5070552;28;45451;-81
2021/12/25 02:36:23;;;;;;;;;7.00;6.75;;;;;11.35;74.63;100050.25;5082693;28;45557;-80
2021/12/25 02:38:51;;;;;;;;;10.50;9.75;;;;;11.32;74.73;100033.63;5068932;28;45273;-80
2021/12/25 02:41:17;;;;;;;;;10.25;9.25;;;;;11.38;74.49;100049.31;5054997;28;47479;-80
2021/12/25 02:43:45;;;;;;;;;10.25;10.00;;;;;11.39;74.59;100049.28;5059762;28;45487;-80
2021/12/25 02:46:11;;;;;;;;;11.00;10.50;;;;;11.40;74.37;100048.38;5063840;28;45336;-80
2021/12/25 02:48:38;;;;;;;;;10.00;9.25;;;;;11.37;74.55;100034.41;5060607;28;45592;-80
2021/12/25 02:51:07;;;;;;;;;10.25;9.00;;;;;11.41;74.47;100038.72;5053843;28;47171;-80
2021/12/25 02:53:34;;;;;;;;;10.50;9.50;;;;;11.42;74.56;100038.69;5060816;28;45603;-80
2021/12/25 02:55:59;;;;;;;;;10.75;9.75;;;;;11.46;74.45;100039.50;5082365;28;45503;-81
2021/12/25 02:58:25;;;;;;;;;10.50;10.50;;;;;11.49;74.56;100039.44;5068187;28;45489;-80
2021/12/25 03:00:59;;;;;;;;;11.00;9.50;;;;;11.44;74.32;100029.00;5071017;28;46666;-80
2021/12/25 03:03:25;;;;;;;;;11.00;11.00;;;;;11.57;74.35;100036.66;5075556;28;45463;-80
2021/12/25 03:05:51;;;;;;;;;12.50;10.00;;;;;11.58;74.30;100035.78;5073854;28;45424;-80
2021/12/25 03:08:17;;;;;;;;;12.00;12.00;;;;;11.61;74.16;100040.97;5063886;28;45502;-81
2021/12/25 03:10:43;;;;;;;;;11.50;11.00;;;;;11.61;74.37;100036.56;5081830;28;45963;-80
2021/12/25 03:15:51;;;;;;;;;13.25;13.00;;;;;11.67;74.13;100025.91;5081510;28;45295;-80
2021/12/25 03:18:26;;;;;;;;;14.25;12.00;;;;;11.70;74.02;100033.75;5043225;28;45481;-81
2021/12/25 03:20:56;;;;;;;;;13.25;13.25;;;;;11.75;74.05;100038.94;5074629;28;45656;-80
2021/12/25 03:23:25;;;;;;;;;9.50;9.25;;;;;11.70;73.91;100024.97;5063460;28;45319;-81
2021/12/25 03:25:52;;;;;;;;;14.50;12.50;;;;;11.74;73.81;100028.44;5056446;28;45315;-81
2021/12/25 03:28:21;;;;;;;;;11.00;11.00;;;;;11.78;73.71;100035.38;5049820;28;45930;-81
2021/12/25 03:30:46;;;;;;;;;14.00;13.00;;;;;11.72;73.61;100022.31;5064216;28;45392;-80
2021/12/25 03:33:15;;;;;;;;;13.75;13.25;;;;;11.76;73.68;100029.25;5081562;28;45355;-81
2021/12/25 03:35:42;;;;;;;;;11.25;10.50;;;;;11.79;73.76;100035.34;5068199;28;45358;-81
2021/12/25 03:38:11;;;;;;;;;12.00;10.50;;;;;11.79;73.74;100032.72;5081591;28;45494;-81
2021/12/25 03:40:37;;;;;;;;;11.00;9.50;;;;;11.80;73.83;100033.56;5067523;28;45434;-81
2021/12/25 03:43:04;;;;;;;;;12.00;12.00;;;;;11.78;73.76;100027.47;5062997;28;45459;-81
2021/12/25 03:45:31;;;;;;;;;13.00;10.00;;;;;11.84;73.79;100029.97;5044137;28;45499;-81
2021/12/25 03:57:37;;;;;;;;;12.75;11.00;;;;;11.88;73.58;100037.81;5019710;28;45326;-81
2021/12/25 03:59:11;;;;;;;;;12.25;11.50;;;;;11.90;73.38;100048.34;5072421;28;45438;-81
2021/12/25 04:04:22;;;;;;;;;13.50;12.50;;;;;11.86;73.40;100050.16;5060734;28;45530;-80
2021/12/25 04:07:00;;;;;;;;;13.25;11.25;;;;;11.90;73.75;100059.75;5061299;28;45552;-81
2021/12/25 04:09:30;;;;;;;;;11.00;10.00;;;;;11.91;73.35;100061.50;5066770;28;45327;-81
2021/12/25 04:11:58;;;;;;;;;13.00;12.50;;;;;11.87;73.21;100056.34;5062448;28;47114;-80
2021/12/25 04:14:24;;;;;;;;;12.00;12.00;;;;;11.87;73.37;100045.78;5062312;28;45917;-81
2021/12/25 04:16:49;;;;;;;;;13.25;12.50;;;;;11.90;73.57;100051.00;5072655;28;45453;-81
2021/12/25 04:19:15;;;;;;;;;13.25;12.50;;;;;11.89;73.43;100042.22;5072638;28;45341;-81
2021/12/25 04:21:50;;;;;;;;;15.50;13.00;;;;;11.94;73.45;100049.16;5060444;28;45823;-81
2021/12/25 04:24:15;;;;;;;;;17.25;15.25;;;;;11.96;73.51;100053.50;5072835;28;45440;-80
2021/12/25 04:26:43;;;;;;;;;12.00;12.00;;;;;11.94;73.50;100046.50;5070095;28;45437;-81
2021/12/25 04:47:54;;;;;;;;;20.75;16.50;;;;;11.89;73.28;100051.88;5070290;28;45782;-80
2021/12/25 05:05:01;;;;;;;;;17.25;15.00;;;;;11.87;73.81;100057.19;5053788;28;46184;-80
2021/12/25 05:07:26;;;;;;;;;14.75;14.75;;;;;11.86;73.86;100051.94;5043032;28;45447;-80
2021/12/25 05:09:53;;;;;;;;;19.25;16.75;;;;;11.85;73.84;100058.97;5063879;28;45412;-81
2021/12/25 05:12:19;;;;;;;;;21.25;18.75;;;;;11.85;74.04;100056.31;5064132;28;45542;-81
2021/12/25 05:14:44;;;;;;;;;20.00;17.50;;;;;11.86;73.98;100059.84;5064725;28;46425;-80
2021/12/25 05:17:11;;;;;;;;;21.25;18.00;;;;;11.86;74.14;100055.44;5066246;28;45201;-80
2021/12/25 05:19:37;;;;;;;;;19.50;18.00;;;;;11.87;74.16;100061.59;5059757;28;45419;-80
2021/12/25 05:22:02;;;;;;;;;14.50;14.00;;;;;11.88;73.96;100061.56;5043624;28;45479;-80
2021/12/25 05:24:28;;;;;;;;;20.00;17.00;;;;;11.80;73.84;100057.31;5047196;28;47218;-80
2021/12/25 05:26:57;;;;;;;;;17.50;16.00;;;;;11.79;73.98;100045.03;5051569;28;45389;-80
2021/12/25 05:29:24;;;;;;;;;14.50;12.75;;;;;11.86;74.04;100060.72;5083364;28;45414;-80
2021/12/25 05:31:51;;;;;;;;;18.25;17.00;;;;;11.88;74.16;100065.97;5083148;28;45468;-81
2021/12/25 05:34:17;;;;;;;;;15.50;13.25;;;;;11.85;74.27;100052.81;5056177;28;47199;-81
2021/12/25 05:36:42;;;;;;;;;19.25;15.50;;;;;11.91;74.22;100065.91;5078582;28;45318;-81
2021/12/25 05:39:12;;;;;;;;;20.50;18.50;;;;;11.86;73.89;100062.50;5083662;28;45654;-80
2021/12/25 05:41:37;;;;;;;;;17.50;14.00;;;;;11.87;74.10;100057.19;5080164;28;45581;-81
2021/12/25 05:44:03;;;;;;;;;20.00;17.25;;;;;11.88;74.38;100063.34;5063907;28;45488;-80
2021/12/25 05:46:28;;;;;;;;;20.50;16.75;;;;;11.93;74.12;100068.53;5047700;28;45510;-80
2021/12/25 05:48:54;;;;;;;;;18.25;14.25;;;;;11.91;74.02;100064.13;5073754;28;45410;-80
2021/12/25 05:51:20;;;;;;;;;17.75;16.75;;;;;11.90;74.15;100061.53;5066110;28;45422;-80
2021/12/25 05:53:46;;;;;;;;;18.00;17.50;;;;;11.86;73.91;100065.13;5063897;28;46354;-81
2021/12/25 05:56:12;;;;;;;;;17.25;17.25;;;;;11.89;74.08;100063.31;5078351;28;45211;-81
2021/12/25 05:58:37;;;;;;;;;19.75;17.50;;;;;11.86;74.28;100054.56;5083295;28;45240;-80
2021/12/25 06:01:04;;;;;;;;;18.50;17.50;;;;;11.84;74.09;100067.78;5069227;28;45474;-80
2021/12/25 06:03:30;;;;;;;;;15.25;14.75;;;;;11.87;74.18;100065.09;5065261;28;46128;-80
2021/12/25 06:05:57;;;;;;;;;14.00;9.50;;;;;11.89;74.26;100070.34;5084564;28;45309;-81
2021/12/25 06:08:23;;;;;;;;;18.50;16.00;;;;;11.88;74.37;100069.47;5066645;28;45402;-81
2021/12/25 06:10:48;;;;;;;;;20.25;15.25;;;;;11.84;74.14;100057.22;5084746;28;45233;-80
2021/12/25 06:13:18;;;;;;;;;18.75;18.75;;;;;11.89;74.46;100071.22;5059078;28;47011;-80
2021/12/25 06:15:44;;;;;;;;;19.75;15.00;;;;;11.88;74.24;100066.84;5048155;28;45473;-80
2021/12/25 06:18:10;;;;;;;;;19.00;14.00;;;;;11.87;74.24;100066.88;5044678;28;45465;-81
2021/12/25 06:20:37;;;;;;;;;19.50;15.00;;;;;11.85;74.27;100058.09;5075937;28;45375;-81
2021/12/25 06:23:02;;;;;;;;;17.25;13.75;;;;;11.89;74.13;100071.22;5064959;28;45422;-81
2021/12/25 06:25:28;;;;;;;;;17.00;14.75;;;;;11.87;74.25;100072.16;5044771;28;45261;-81
2021/12/25 06:27:55;;;;;;;;;18.50;15.75;;;;;11.88;74.14;100068.59;5075286;28;45273;-81
2021/12/25 06:30:20;;;;;;;;;13.50;13.25;;;;;11.85;74.23;100066.88;5065425;28;45417;-80
2021/12/25 06:32:46;;;;;;;;;18.50;14.75;;;;;11.89;74.18;100078.25;5090527;28;46276;-81
2021/12/25 06:35:12;;;;;;;;;16.25;14.25;;;;;11.85;74.21;100082.69;5053231;28;45402;-80
2021/12/25 06:37:40;;;;;;;;;17.75;14.00;;;;;11.84;74.39;100085.34;5083170;28;45267;-81
2021/12/25 06:40:07;;;;;;;;;19.50;16.50;;;;;11.86;74.33;100083.59;5081749;28;45474;-80
2021/12/25 06:42:33;;;;;;;;;16.50;13.50;;;;;11.80;74.47;100070.50;5070140;28;45997;-80
2021/12/25 06:44:58;;;;;;;;;15.50;12.25;;;;;11.85;74.41;100089.75;5068393;28;45204;-79
2021/12/25 06:47:24;;;;;;;;;15.75;13.75;;;;;11.81;74.38;100077.50;5082711;28;45639;-80
2021/12/25 06:49:49;;;;;;;;;19.25;15.75;;;;;11.81;74.51;100077.50;5082656;28;45196;-80
2021/12/25 06:52:15;;;;;;;;;17.75;15.00;;;;;11.85;74.50;100087.97;5082938;28;46431;-80
2021/12/25 06:54:40;;;;;;;;;13.50;12.50;;;;;11.86;74.54;100086.22;5081901;28;45327;-80
2021/12/25 06:57:07;;;;;;;;;13.50;12.75;;;;;11.87;74.30;100094.13;5052211;28;46376;-81
2021/12/25 06:59:32;;;;;;;;;14.25;14.00;;;;;11.80;74.36;100086.31;5067788;28;45326;-80
2021/12/25 07:01:58;;;;;;;;;12.25;12.25;;;;;11.85;74.31;100087.97;5052282;28;47110;-81
2021/12/25 07:04:23;;;;;;;;;17.00;16.00;;;;;11.83;74.36;100086.25;5064494;28;45291;-80
2021/12/25 07:06:48;;;;;;;;;15.00;13.75;;;;;11.85;74.30;100087.09;5074571;28;45420;-80
2021/12/25 07:09:14;;;;;;;;;15.75;14.75;;;;;11.86;74.34;100086.22;5062058;28;45454;-81
2021/12/25 07:11:40;;;;;;;;;19.25;15.00;;;;;11.87;74.45;100083.56;5061815;28;45495;-81
2021/12/25 07:14:08;;;;;;;;;18.50;15.75;;;;;11.87;74.34;100091.47;5062277;28;45472;-81
2021/12/25 07:16:34;;;;;;;;;16.25;12.25;;;;;11.84;74.51;100082.72;5073548;28;45536;-80
2021/12/25 07:18:59;;;;;;;;;18.00;13.75;;;;;11.85;74.36;100084.47;5068332;28;45351;-80
2021/12/25 07:21:25;;;;;;;;;16.00;15.25;;;;;11.87;74.40;100090.63;5063921;28;47040;-80
2021/12/25 07:23:50;;;;;;;;;15.75;13.00;;;;;11.87;74.41;100093.25;5068368;28;45325;-80
2021/12/25 07:26:19;;;;;;;;;16.50;15.50;;;;;11.86;74.57;100091.50;5075238;28;45319;-80
2021/12/25 07:28:45;;;;;;;;;17.25;14.50;;;;;11.90;74.44;100095.84;5059012;28;45535;-80
2021/12/25 07:31:11;;;;;;;;;16.25;13.50;;;;;11.87;74.57;100086.22;5056088;28;47733;-81
2021/12/25 07:33:37;;;;;;;;;16.00;13.50;;;;;11.85;74.40;100087.09;5054731;28;45459;-80
2021/12/25 07:36:03;;;;;;;;;15.50;15.00;;;;;11.79;74.48;100074.91;5070724;28;45320;-80
2021/12/25 07:38:28;;;;;;;;;15.25;15.25;;;;;11.86;74.56;100088.88;5092224;28;45525;-80
2021/12/25 07:40:54;;;;;;;;;18.25;15.25;;;;;11.86;74.59;100096.78;5062923;28;47547;-81
2021/12/25 07:43:19;;;;;;;;;16.25;14.25;;;;;11.83;74.75;100092.41;5070435;28;45268;-80
2021/12/25 07:45:49;;;;;;;;;13.75;13.00;;;;;11.80;74.80;100088.97;5052426;28;45272;-81
2021/12/25 07:48:18;;;;;;;;;17.75;13.25;;;;;11.81;74.51;100086.28;5065623;28;45434;-84
2021/12/25 07:50:43;;;;;;;;;14.50;14.25;;;;;11.79;74.71;100088.09;5062408;28;47396;-82
2021/12/25 07:53:10;;;;;;;;;12.00;12.00;;;;;11.84;74.90;100095.91;5078934;28;45326;-82
2021/12/25 07:55:36;;;;;;;;;15.25;11.50;;;;;11.85;74.86;100095.03;5051706;28;45311;-81
2021/12/25 07:58:02;;;;;;;;;15.25;14.00;;;;;11.83;74.82;100089.75;5048494;28;45601;-83
2021/12/25 08:00:28;;;;;;;;;19.50;15.25;;;;;11.80;74.94;100086.31;5071925;28;45522;-83
2021/12/25 08:02:53;;;;;;;;;17.00;15.50;;;;;11.88;74.91;100102.91;5056524;28;45482;-82
2021/12/25 08:05:20;;;;;;;;;14.25;12.00;;;;;11.82;74.86;100095.94;5070823;28;45366;-83
2021/12/25 08:07:46;;;;;;;;;15.00;13.25;;;;;11.88;74.84;100102.91;5049473;28;45496;-82
2021/12/25 08:10:13;;;;;;;;;20.00;17.25;;;;;11.88;74.74;100101.13;5055203;28;47376;-82
2021/12/25 08:12:46;;;;;;;;;19.00;14.25;;;;;11.88;74.73;100101.13;5056225;28;45521;-82
2021/12/25 08:15:12;;;;;;;;;16.50;13.00;;;;;11.91;74.79;100105.47;5069222;28;45362;-82
2021/12/25 08:17:38;;;;;;;;;18.50;15.75;;;;;11.94;74.47;100107.19;5060191;28;45391;-82
2021/12/25 08:20:05;;;;;;;;;20.50;16.00;;;;;11.91;74.43;100102.84;5069587;28;46331;-82
2021/12/25 08:22:30;;;;;;;;;16.25;15.50;;;;;11.91;74.26;100105.47;5078499;28;45228;-83
2021/12/25 08:24:56;;;;;;;;;17.50;17.50;;;;;11.95;74.46;100115.09;5062535;28;45304;-82
2021/12/25 08:27:21;;;;;;;;;20.50;17.50;;;;;11.91;74.49;100102.84;5078697;28;45247;-82
2021/12/25 08:29:47;;;;;;;;;19.75;18.75;;;;;11.87;74.24;100099.41;5069286;28;45307;-82
2021/12/25 08:32:12;;;;;;;;;20.25;19.25;;;;;11.90;74.28;100117.78;5064769;28;45450;-82
2021/12/25 08:34:38;;;;;;;;;17.25;16.00;;;;;11.79;74.19;100101.28;5042764;28;45308;-81
2021/12/25 08:37:04;;;;;;;;;21.25;16.25;;;;;11.80;74.50;100120.59;5055862;28;45438;-82
2021/12/25 08:39:31;;;;;;;;;19.00;17.75;;;;;11.74;74.38;100104.91;5069835;28;45441;-82
2021/12/25 08:42:01;;;;;;;;;15.25;14.00;;;;;11.76;74.35;100105.72;5062203;28;45502;-83
2021/12/25 08:44:35;;;;;;;;;17.00;15.00;;;;;11.76;74.17;100116.28;5070172;28;45894;-82
2021/12/25 08:47:04;;;;;;;;;21.50;16.50;;;;;11.74;74.35;100110.19;5054718;28;45159;-82
2021/12/25 08:49:31;;;;;;;;;18.25;16.50;;;;;11.75;74.42;100114.53;5071923;28;45494;-83
2021/12/25 08:52:05;;;;;;;;;17.00;14.75;;;;;11.72;74.41;100102.28;5048459;28;45438;-81
2021/12/25 08:54:31;;;;;;;;;18.25;15.50;;;;;11.77;74.41;100118.91;5067471;28;45397;-83
2021/12/25 08:56:56;;;;;;;;;23.00;19.50;;;;;11.76;74.25;100121.53;5073381;28;45313;-83
2021/12/25 08:59:22;;;;;;;;;17.75;15.25;;;;;11.75;74.32;100118.03;5054899;28;47249;-84
2021/12/25 09:01:48;;;;;;;;;20.00;17.75;;;;;11.79;74.39;100127.66;5066745;28;45439;-82
2021/12/25 09:04:13;;;;;;;;;22.50;19.25;;;;;11.78;74.37;100130.31;5080351;28;45252;-84
2021/12/25 09:06:39;;;;;;;;;16.75;15.75;;;;;11.81;74.36;100135.53;5060177;28;45331;-80
2021/12/25 09:09:08;;;;;;;;;17.50;16.25;;;;;11.80;73.96;100136.44;5062481;28;45303;-83
2021/12/25 09:11:35;;;;;;;;;16.25;15.00;;;;;11.74;73.86;100126.88;5078859;28;45476;-83
2021/12/25 09:14:01;;;;;;;;;24.50;18.75;;;;;11.77;74.14;100134.72;5080245;28;45366;-86
2021/12/25 09:16:26;;;;;;;;;21.00;17.75;;;;;11.78;74.18;100136.44;5071369;28;45446;-84
2021/12/25 09:18:51;;;;;;;;;24.00;18.75;;;;;11.76;74.24;100127.72;5069234;28;45442;-85
2021/12/25 09:21:18;;;;;;;;;18.75;18.50;;;;;11.76;74.45;100138.25;5048437;28;45445;-83
2021/12/25 09:23:44;;;;;;;;;20.00;19.00;;;;;11.77;74.21;100136.50;5070093;28;45232;-82
2021/12/25 09:26:09;;;;;;;;;21.25;17.50;;;;;11.76;74.43;100133.00;5060590;28;45518;-82
2021/12/25 09:28:36;;;;;;;;;19.75;18.25;;;;;11.80;74.47;100137.28;5049076;28;48077;-82
2021/12/25 09:31:01;;;;;;;;;23.25;21.75;;;;;11.82;74.48;100146.06;5078827;28;45185;-81
2021/12/25 09:33:27;;;;;;;;;19.75;18.00;;;;;11.76;74.34;100135.63;5079873;28;45248;-82
2021/12/25 09:35:52;;;;;;;;;16.50;15.25;;;;;11.77;74.25;100145.25;5079757;28;45489;-83
2021/12/25 09:38:18;;;;;;;;;18.00;16.25;;;;;11.71;74.34;100140.13;5079634;28;45351;-81
2021/12/25 09:40:44;;;;;;;;;19.50;18.75;;;;;11.76;74.25;100143.53;5061384;28;45738;-83
2021/12/25 09:43:09;;;;;;;;;16.50;16.00;;;;;11.76;74.38;100151.44;5048925;28;45412;-82
2021/12/25 09:45:35;;;;;;;;;19.75;16.50;;;;;11.74;74.10;100141.81;5064917;28;45572;-83
2021/12/25 09:48:01;;;;;;;;;23.50;19.25;;;;;11.73;74.28;100148.84;5061220;28;46157;-82
2021/12/25 09:50:26;;;;;;;;;24.25;18.50;;;;;11.73;74.36;100156.75;5079387;28;45417;-81
2021/12/25 09:52:52;;;;;;;;;18.00;14.75;;;;;11.79;74.62;100163.72;5048555;28;45384;-82
2021/12/25 09:55:18;;;;;;;;;18.75;16.25;;;;;11.75;74.50;100151.47;5078778;28;45347;-83
2021/12/25 09:57:46;;;;;;;;;19.00;14.00;;;;;11.85;74.66;100153.91;5061113;28;47075;-81
2021/12/25 10:00:15;;;;;;;;;19.25;17.50;;;;;11.93;74.28;100148.53;5079058;28;45284;-82
2021/12/25 10:02:49;;;;;;;;;25.25;21.25;;;;;12.03;74.41;100158.00;5057968;28;45422;-81
2021/12/25 10:05:32;;;;;;;;;15.00;13.25;;;;;12.09;74.35;100155.25;5068862;28;45422;-82
2021/12/25 10:08:18;;;;;;;;;15.00;15.00;;;;;12.11;73.73;100153.44;5059628;28;46298;-83
2021/12/25 10:10:46;;;;;;;;;21.50;16.75;;;;;12.17;74.04;100156.88;5076384;28;45550;-82
2021/12/25 10:13:19;;;;;;;;;21.25;18.00;;;;;12.17;73.45;100162.16;5058746;28;45453;-82
2021/12/25 10:15:45;;;;;;;;;18.50;18.50;;;;;12.13;73.64;100162.22;5052714;28;45375;-82
2021/12/25 10:18:11;;;;;;;;;19.00;15.00;;;;;12.09;73.69;100154.38;5062594;28;45593;-82
2021/12/25 10:20:36;;;;;;;;;16.50;14.50;;;;;12.05;73.80;100143.00;5062793;28;45401;-82
2021/12/25 10:23:08;;;;;;;;;16.00;13.25;;;;;12.08;73.65;100149.97;5066460;28;45417;-81
2021/12/25 10:25:48;;;;;;;;;18.75;15.50;;;;;12.09;73.35;100143.81;5048904;28;45835;-82
2021/12/25 10:28:17;;;;;;;;;12.50;12.50;;;;;12.09;73.36;100144.69;5073074;28;45415;-81
2021/12/25 10:31:02;;;;;;;;;15.25;14.25;;;;;12.12;73.19;100141.13;5075689;28;45342;-82
2021/12/25 10:33:32;;;;;;;;;42.25;34.75;;;;;12.20;73.25;100144.47;5061477;28;45329;-81
2021/12/25 10:36:07;;;;;;;;;16.75;14.75;;;;;12.28;73.29;100146.97;5063203;28;45247;-82
2021/12/25 10:38:33;;;;;;;;;16.75;13.00;;;;;12.35;73.06;100144.16;5071234;28;46673;-82
2021/12/25 10:41:19;;;;;;;;;23.75;15.25;;;;;12.35;73.06;100140.66;5056592;28;45873;-79
2021/12/25 10:43:44;;;;;;;;;15.75;13.50;;;;;12.46;72.89;100143.09;5061415;28;45608;-81
2021/12/25 10:46:10;;;;;;;;;15.00;14.00;;;;;12.53;72.77;100145.53;5061523;28;45491;-84
2021/12/25 10:48:36;;;;;;;;;16.00;15.00;;;;;12.58;72.46;100143.66;5056258;28;48339;-80
2021/12/25 10:51:01;;;;;;;;;14.50;13.00;;;;;12.58;72.45;100129.59;5065772;28;45338;-80
2021/12/25 10:53:31;;;;;;;;;14.25;12.00;;;;;12.64;72.13;100131.22;5080446;28;45258;-80
2021/12/25 19:29:27;;;;;;;;;22.50;20.75;;;;;12.32;73.29;100140.69;4935835;28;45405;-85
2021/12/25 19:32:05;;;;;;;;;;;;;;;;;;;;;
2021/12/25 19:59:12;;;;;;;;;;;;;;;;;;;;;
2021/12/25 20:05:22;;;;;;;;;27.75;25.25;;;;;12.46;73.43;100119.31;5057457;28;45536;-85
2021/12/25 20:11:28;;;;;;;;;32.75;26.75;;;;;12.42;73.18;100104.44;5015934;28;45397;-87
2021/12/25 20:14:37;;;;;;;;;37.50;33.00;;;;;12.41;73.34;100103.56;5044021;28;45661;-87
2021/12/25 20:17:02;;;;;;;;;31.75;25.50;;;;;12.49;73.00;100116.59;5041509;28;46488;-86
2021/12/25 20:22:16;;;;;;;;;30.00;26.25;;;;;12.46;73.17;100114.91;5045494;28;45397;-86
2021/12/25 20:24:41;;;;;;;;;27.25;24.50;;;;;12.41;73.28;100108.84;5043896;28;46052;-87
2021/12/25 20:27:07;;;;;;;;;20.50;19.25;;;;;12.37;73.30;100101.88;5040983;28;47929;-88
2021/12/25 20:29:32;;;;;;;;;24.75;24.75;;;;;12.43;73.28;100106.16;5033544;28;45673;-87
2021/12/25 20:31:58;;;;;;;;;26.50;23.00;;;;;12.43;72.92;100122.00;5040400;28;45505;-88
2021/12/25 20:34:23;;;;;;;;;21.75;19.00;;;;;12.43;72.92;100114.97;5036926;28;45959;-88
2021/12/25 20:36:49;;;;;;;;;24.00;23.25;;;;;12.40;73.12;100114.16;5058285;28;46295;-86
2021/12/25 20:39:17;;;;;;;;;27.00;24.50;;;;;12.45;73.27;100121.06;5050907;28;45501;-89
2021/12/25 20:41:43;;;;;;;;;21.50;21.25;;;;;12.41;73.17;100119.41;5055555;28;45492;-88
2021/12/25 20:44:16;;;;;;;;;21.75;21.50;;;;;12.43;73.02;100128.19;5039702;28;45508;-88
2021/12/25 20:46:46;;;;;;;;;30.25;25.25;;;;;12.40;72.87;100119.44;5053030;28;45639;-89
2021/12/25 20:49:12;;;;;;;;;27.00;26.00;;;;;12.39;72.94;100115.06;5048630;28;45437;-87
2021/12/25 20:51:38;;;;;;;;;31.00;25.00;;;;;12.37;72.81;100115.09;5039120;28;45558;-86
2021/12/25 20:54:08;;;;;;;;;25.00;20.75;;;;;12.37;72.96;100123.00;5053764;28;45610;-87
2021/12/25 20:56:34;;;;;;;;;24.75;20.50;;;;;12.34;72.99;100117.78;5035460;28;47001;-89
2021/12/25 20:59:00;;;;;;;;;27.50;25.00;;;;;12.32;72.97;100112.56;5045107;28;45728;-90
2021/12/25 21:01:26;;;;;;;;;26.25;19.75;;;;;12.30;73.06;100119.63;5037163;28;44730;-89
2021/12/25 21:03:52;;;;;;;;;22.00;18.50;;;;;12.31;72.88;100125.78;5033544;28;45858;-90
2021/12/25 21:06:18;;;;;;;;;24.50;20.25;;;;;12.32;73.27;100117.84;5037110;28;48115;-87
2021/12/25 21:08:43;;;;;;;;;24.50;20.25;;;;;12.31;72.95;100124.00;5038275;28;45573;-85
2021/12/25 21:11:10;;;;;;;;;25.25;23.25;;;;;12.27;73.06;100124.09;5040097;28;45439;-90
2021/12/25 21:13:46;;;;;;;;;26.75;21.75;;;;;12.22;72.81;100121.56;5053864;28;45453;-87
2021/12/25 21:16:13;;;;;;;;;23.00;22.00;;;;;12.26;73.08;100125.88;5035952;28;47171;-86
2021/12/25 21:18:41;;;;;;;;;28.75;24.50;;;;;12.26;72.99;100122.38;5041659;28;45555;-89
2021/12/25 21:21:07;;;;;;;;;29.75;27.00;;;;;12.20;73.06;100104.88;5032426;28;45441;-88
2021/12/25 21:23:33;;;;;;;;;28.75;26.00;;;;;12.28;72.91;100121.44;5048113;28;45407;-89
2021/12/25 21:26:00;;;;;;;;;34.00;29.75;;;;;12.27;72.96;100119.72;5074368;27;45525;-88
2021/12/25 21:28:27;;;;;;;;;28.00;23.50;;;;;12.22;72.89;100111.00;5034904;28;45133;-89
2021/12/25 21:30:54;;;;;;;;;32.00;30.00;;;;;12.28;73.11;100118.78;5056724;28;45923;-89
2021/12/25 21:33:19;;;;;;;;;32.25;28.75;;;;;12.30;73.36;100127.56;5045656;28;45407;-87
2021/12/25 21:35:48;;;;;;;;;32.00;30.00;;;;;12.29;73.29;100120.53;5052933;28;47127;-85
2021/12/25 21:38:15;;;;;;;;;35.50;33.00;;;;;12.25;73.66;100118.88;5064459;28;45347;-84
2021/12/25 21:40:40;;;;;;;;;34.00;30.00;;;;;12.28;73.39;100125.84;5061459;28;45568;-87
2021/12/25 21:43:12;;;;;;;;;36.00;32.75;;;;;12.23;73.48;100112.75;5054427;28;45468;-85
2021/12/25 21:45:46;;;;;;;;;41.00;34.00;;;;;12.24;73.15;100116.25;5044201;28;46615;-86
2021/12/25 21:48:15;;;;;;;;;41.75;34.75;;;;;12.27;73.23;100124.97;5048996;28;44856;-88